sensor_id;sensor_type;location;lat;lon;timestamp;P1;durP1;ratioP1;P2;durP2;ratioP2
49296;SDS011;35163;48.878;18.040;2024-01-16T00:02:17;5.50;;;2.97;;
49296;SDS011;35163;48.878;18.040;2024-01-16T00:04:44;6.72;;;3.20;;
49296;SDS011;35163;48.878;18.040;2024-01-16T00:07:11;6.75;;;3.17;;
49296;SDS011;35163;48.878;18.040;2024-01-16T00:09:37;12.20;;;3.70;;
49296;SDS011;35163;48.878;18.040;2024-01-16T00:12:04;6.80;;;3.15;;
49296;SDS011;35163;48.878;18.040;2024-01-16T00:14:35;7.15;;;3.60;;
49296;SDS011;35163;48.878;18.040;2024-01-16T00:17:03;7.28;;;3.35;;
49296;SDS011;35163;48.878;18.040;2024-01-16T00:19:30;8.27;;;3.78;;
49296;SDS011;35163;48.878;18.040;2024-01-16T00:21:57;7.38;;;3.53;;
49296;SDS011;35163;48.878;18.040;2024-01-16T00:24:23;8.15;;;4.03;;
49296;SDS011;35163;48.878;18.040;2024-01-16T00:26:51;8.05;;;3.35;;
49296;SDS011;35163;48.878;18.040;2024-01-16T00:29:17;5.40;;;3.03;;
49296;SDS011;35163;48.878;18.040;2024-01-16T00:31:44;7.50;;;3.53;;
49296;SDS011;35163;48.878;18.040;2024-01-16T00:34:11;7.53;;;3.50;;
49296;SDS011;35163;48.878;18.040;2024-01-16T00:36:38;7.55;;;3.42;;
49296;SDS011;35163;48.878;18.040;2024-01-16T00:39:04;7.07;;;3.90;;
49296;SDS011;35163;48.878;18.040;2024-01-16T00:41:31;8.10;;;3.35;;
49296;SDS011;35163;48.878;18.040;2024-01-16T00:43:58;7.22;;;3.50;;
49296;SDS011;35163;48.878;18.040;2024-01-16T00:46:24;7.13;;;3.40;;
49296;SDS011;35163;48.878;18.040;2024-01-16T00:48:51;7.95;;;3.85;;
49296;SDS011;35163;48.878;18.040;2024-01-16T00:51:18;7.55;;;3.55;;
49296;SDS011;35163;48.878;18.040;2024-01-16T00:53:45;6.35;;;3.17;;
49296;SDS011;35163;48.878;18.040;2024-01-16T00:56:12;7.32;;;3.53;;
49296;SDS011;35163;48.878;18.040;2024-01-16T00:58:41;6.07;;;3.00;;
49296;SDS011;35163;48.878;18.040;2024-01-16T01:01:08;7.32;;;3.30;;
49296;SDS011;35163;48.878;18.040;2024-01-16T01:03:34;6.85;;;2.95;;
49296;SDS011;35163;48.878;18.040;2024-01-16T01:06:01;6.68;;;3.30;;
49296;SDS011;35163;48.878;18.040;2024-01-16T01:08:29;6.93;;;3.42;;
49296;SDS011;35163;48.878;18.040;2024-01-16T01:10:56;6.68;;;2.90;;
49296;SDS011;35163;48.878;18.040;2024-01-16T01:13:22;5.80;;;2.80;;
49296;SDS011;35163;48.878;18.040;2024-01-16T01:15:51;6.72;;;3.75;;
49296;SDS011;35163;48.878;18.040;2024-01-16T01:18:18;6.40;;;3.25;;
49296;SDS011;35163;48.878;18.040;2024-01-16T01:20:45;7.15;;;3.10;;
49296;SDS011;35163;48.878;18.040;2024-01-16T01:23:12;8.73;;;3.67;;
49296;SDS011;35163;48.878;18.040;2024-01-16T01:25:39;6.18;;;3.15;;
49296;SDS011;35163;48.878;18.040;2024-01-16T01:28:06;6.55;;;3.33;;
49296;SDS011;35163;48.878;18.040;2024-01-16T01:30:32;7.72;;;3.75;;
49296;SDS011;35163;48.878;18.040;2024-01-16T01:32:59;6.97;;;3.28;;
49296;SDS011;35163;48.878;18.040;2024-01-16T01:35:26;7.22;;;2.97;;
49296;SDS011;35163;48.878;18.040;2024-01-16T01:37:53;7.13;;;3.25;;
49296;SDS011;35163;48.878;18.040;2024-01-16T01:40:20;5.10;;;2.80;;
49296;SDS011;35163;48.878;18.040;2024-01-16T01:42:47;7.90;;;3.58;;
49296;SDS011;35163;48.878;18.040;2024-01-16T01:45:14;7.03;;;3.17;;
49296;SDS011;35163;48.878;18.040;2024-01-16T01:47:40;7.40;;;3.40;;
49296;SDS011;35163;48.878;18.040;2024-01-16T01:50:11;6.15;;;3.08;;
49296;SDS011;35163;48.878;18.040;2024-01-16T01:52:40;5.13;;;2.90;;
49296;SDS011;35163;48.878;18.040;2024-01-16T01:55:11;7.22;;;3.78;;
49296;SDS011;35163;48.878;18.040;2024-01-16T01:57:39;7.97;;;3.70;;
49296;SDS011;35163;48.878;18.040;2024-01-16T02:00:10;6.25;;;3.10;;
49296;SDS011;35163;48.878;18.040;2024-01-16T02:02:37;6.75;;;3.42;;
49296;SDS011;35163;48.878;18.040;2024-01-16T02:05:04;8.68;;;3.75;;
49296;SDS011;35163;48.878;18.040;2024-01-16T02:07:31;7.50;;;3.40;;
49296;SDS011;35163;48.878;18.040;2024-01-16T02:10:00;8.68;;;3.33;;
49296;SDS011;35163;48.878;18.040;2024-01-16T02:12:27;6.88;;;3.15;;
49296;SDS011;35163;48.878;18.040;2024-01-16T02:14:54;6.47;;;3.42;;
49296;SDS011;35163;48.878;18.040;2024-01-16T02:17:21;8.05;;;3.08;;
49296;SDS011;35163;48.878;18.040;2024-01-16T02:19:48;4.10;;;2.40;;
49296;SDS011;35163;48.878;18.040;2024-01-16T02:22:15;5.88;;;2.88;;
49296;SDS011;35163;48.878;18.040;2024-01-16T02:24:47;7.10;;;3.25;;
49296;SDS011;35163;48.878;18.040;2024-01-16T02:27:14;5.30;;;2.75;;
49296;SDS011;35163;48.878;18.040;2024-01-16T02:29:41;5.53;;;2.97;;
49296;SDS011;35163;48.878;18.040;2024-01-16T02:32:12;6.63;;;3.10;;
49296;SDS011;35163;48.878;18.040;2024-01-16T02:34:40;6.63;;;2.92;;
49296;SDS011;35163;48.878;18.040;2024-01-16T02:37:07;5.97;;;3.20;;
49296;SDS011;35163;48.878;18.040;2024-01-16T02:39:34;5.82;;;2.72;;
49296;SDS011;35163;48.878;18.040;2024-01-16T02:42:01;5.95;;;2.70;;
49296;SDS011;35163;48.878;18.040;2024-01-16T02:44:28;5.68;;;2.53;;
49296;SDS011;35163;48.878;18.040;2024-01-16T02:46:54;8.38;;;3.05;;
49296;SDS011;35163;48.878;18.040;2024-01-16T02:49:21;14.60;;;3.15;;
49296;SDS011;35163;48.878;18.040;2024-01-16T02:51:48;7.22;;;2.53;;
49296;SDS011;35163;48.878;18.040;2024-01-16T02:54:15;5.85;;;3.00;;
49296;SDS011;35163;48.878;18.040;2024-01-16T02:56:42;7.03;;;2.97;;
49296;SDS011;35163;48.878;18.040;2024-01-16T02:59:09;6.88;;;2.90;;
49296;SDS011;35163;48.878;18.040;2024-01-16T03:01:36;9.32;;;2.70;;
49296;SDS011;35163;48.878;18.040;2024-01-16T03:04:02;8.98;;;3.08;;
49296;SDS011;35163;48.878;18.040;2024-01-16T03:06:29;7.38;;;2.97;;
49296;SDS011;35163;48.878;18.040;2024-01-16T03:08:56;7.45;;;3.22;;
49296;SDS011;35163;48.878;18.040;2024-01-16T03:11:23;9.13;;;2.97;;
49296;SDS011;35163;48.878;18.040;2024-01-16T03:13:50;4.35;;;2.25;;
49296;SDS011;35163;48.878;18.040;2024-01-16T03:16:19;8.68;;;2.95;;
49296;SDS011;35163;48.878;18.040;2024-01-16T03:18:45;8.13;;;3.05;;
49296;SDS011;35163;48.878;18.040;2024-01-16T03:21:13;4.82;;;2.80;;
49296;SDS011;35163;48.878;18.040;2024-01-16T03:23:40;6.03;;;2.67;;
49296;SDS011;35163;48.878;18.040;2024-01-16T03:26:06;5.57;;;2.92;;
49296;SDS011;35163;48.878;18.040;2024-01-16T03:28:38;8.48;;;2.97;;
49296;SDS011;35163;48.878;18.040;2024-01-16T03:31:06;7.90;;;2.53;;
49296;SDS011;35163;48.878;18.040;2024-01-16T03:33:33;8.80;;;2.95;;
49296;SDS011;35163;48.878;18.040;2024-01-16T03:36:09;8.23;;;2.80;;
49296;SDS011;35163;48.878;18.040;2024-01-16T03:38:36;6.93;;;2.45;;
49296;SDS011;35163;48.878;18.040;2024-01-16T03:41:03;7.13;;;3.00;;
49296;SDS011;35163;48.878;18.040;2024-01-16T03:43:30;6.45;;;3.25;;
49296;SDS011;35163;48.878;18.040;2024-01-16T03:45:57;10.73;;;3.22;;
49296;SDS011;35163;48.878;18.040;2024-01-16T03:48:24;6.68;;;3.00;;
49296;SDS011;35163;48.878;18.040;2024-01-16T03:50:51;9.23;;;3.08;;
49296;SDS011;35163;48.878;18.040;2024-01-16T03:53:18;5.10;;;2.55;;
49296;SDS011;35163;48.878;18.040;2024-01-16T03:55:44;8.65;;;3.30;;
49296;SDS011;35163;48.878;18.040;2024-01-16T03:58:11;6.80;;;2.88;;
49296;SDS011;35163;48.878;18.040;2024-01-16T04:00:39;6.70;;;3.00;;
49296;SDS011;35163;48.878;18.040;2024-01-16T04:03:05;234.15;;;90.25;;
49296;SDS011;35163;48.878;18.040;2024-01-16T04:05:33;209.18;;;75.93;;
49296;SDS011;35163;48.878;18.040;2024-01-16T04:08:00;194.40;;;71.45;;
49296;SDS011;35163;48.878;18.040;2024-01-16T04:10:27;171.65;;;64.35;;
49296;SDS011;35163;48.878;18.040;2024-01-16T04:12:54;141.65;;;56.97;;
49296;SDS011;35163;48.878;18.040;2024-01-16T04:15:20;150.07;;;54.00;;
49296;SDS011;35163;48.878;18.040;2024-01-16T04:17:48;121.03;;;48.78;;
49296;SDS011;35163;48.878;18.040;2024-01-16T04:20:15;25.23;;;10.85;;
49296;SDS011;35163;48.878;18.040;2024-01-16T04:22:42;22.58;;;9.23;;
49296;SDS011;35163;48.878;18.040;2024-01-16T04:25:09;12.82;;;5.72;;
49296;SDS011;35163;48.878;18.040;2024-01-16T04:27:36;16.80;;;6.55;;
49296;SDS011;35163;48.878;18.040;2024-01-16T04:30:02;12.68;;;4.75;;
49296;SDS011;35163;48.878;18.040;2024-01-16T04:32:30;23.67;;;8.52;;
49296;SDS011;35163;48.878;18.040;2024-01-16T04:34:57;14.40;;;6.32;;
49296;SDS011;35163;48.878;18.040;2024-01-16T04:37:24;8.90;;;4.15;;
49296;SDS011;35163;48.878;18.040;2024-01-16T04:39:50;16.10;;;5.63;;
49296;SDS011;35163;48.878;18.040;2024-01-16T04:42:17;23.58;;;9.00;;
49296;SDS011;35163;48.878;18.040;2024-01-16T04:44:44;14.45;;;5.70;;
49296;SDS011;35163;48.878;18.040;2024-01-16T04:47:11;13.23;;;4.65;;
49296;SDS011;35163;48.878;18.040;2024-01-16T04:49:38;24.27;;;8.63;;
49296;SDS011;35163;48.878;18.040;2024-01-16T04:52:04;15.55;;;5.40;;
49296;SDS011;35163;48.878;18.040;2024-01-16T04:54:31;12.48;;;4.93;;
49296;SDS011;35163;48.878;18.040;2024-01-16T04:56:58;18.33;;;6.57;;
49296;SDS011;35163;48.878;18.040;2024-01-16T04:59:25;19.25;;;6.97;;
49296;SDS011;35163;48.878;18.040;2024-01-16T05:01:52;12.43;;;5.03;;
49296;SDS011;35163;48.878;18.040;2024-01-16T05:04:18;15.85;;;6.00;;
49296;SDS011;35163;48.878;18.040;2024-01-16T05:06:49;10.88;;;4.47;;
49296;SDS011;35163;48.878;18.040;2024-01-16T05:09:17;13.23;;;5.30;;
49296;SDS011;35163;48.878;18.040;2024-01-16T05:11:45;13.35;;;4.80;;
49296;SDS011;35163;48.878;18.040;2024-01-16T05:14:12;10.30;;;3.60;;
49296;SDS011;35163;48.878;18.040;2024-01-16T05:16:39;10.73;;;4.45;;
49296;SDS011;35163;48.878;18.040;2024-01-16T05:19:06;10.02;;;4.25;;
49296;SDS011;35163;48.878;18.040;2024-01-16T05:21:32;8.25;;;3.53;;
49296;SDS011;35163;48.878;18.040;2024-01-16T05:23:59;9.70;;;3.50;;
49296;SDS011;35163;48.878;18.040;2024-01-16T05:26:26;8.85;;;3.47;;
49296;SDS011;35163;48.878;18.040;2024-01-16T05:28:52;7.68;;;2.67;;
49296;SDS011;35163;48.878;18.040;2024-01-16T05:31:20;6.85;;;2.80;;
49296;SDS011;35163;48.878;18.040;2024-01-16T05:33:47;6.22;;;3.08;;
49296;SDS011;35163;48.878;18.040;2024-01-16T05:36:14;9.05;;;3.03;;
49296;SDS011;35163;48.878;18.040;2024-01-16T05:38:40;5.78;;;2.83;;
49296;SDS011;35163;48.878;18.040;2024-01-16T05:41:07;6.00;;;2.90;;
49296;SDS011;35163;48.878;18.040;2024-01-16T05:43:34;7.43;;;2.72;;
49296;SDS011;35163;48.878;18.040;2024-01-16T05:46:01;5.55;;;2.45;;
49296;SDS011;35163;48.878;18.040;2024-01-16T05:48:27;7.38;;;2.70;;
49296;SDS011;35163;48.878;18.040;2024-01-16T05:50:54;6.47;;;2.92;;
49296;SDS011;35163;48.878;18.040;2024-01-16T05:53:21;6.32;;;2.53;;
49296;SDS011;35163;48.878;18.040;2024-01-16T05:55:48;7.65;;;2.67;;
49296;SDS011;35163;48.878;18.040;2024-01-16T05:58:14;6.78;;;2.97;;
49296;SDS011;35163;48.878;18.040;2024-01-16T06:00:41;6.82;;;2.28;;
49296;SDS011;35163;48.878;18.040;2024-01-16T06:03:08;5.43;;;2.55;;
49296;SDS011;35163;48.878;18.040;2024-01-16T06:05:34;9.90;;;2.75;;
49296;SDS011;35163;48.878;18.040;2024-01-16T06:08:01;6.03;;;2.45;;
49296;SDS011;35163;48.878;18.040;2024-01-16T06:10:29;5.03;;;2.30;;
49296;SDS011;35163;48.878;18.040;2024-01-16T06:12:56;5.63;;;2.47;;
49296;SDS011;35163;48.878;18.040;2024-01-16T06:15:23;5.43;;;2.40;;
49296;SDS011;35163;48.878;18.040;2024-01-16T06:17:49;7.50;;;2.65;;
49296;SDS011;35163;48.878;18.040;2024-01-16T06:20:16;5.95;;;3.15;;
49296;SDS011;35163;48.878;18.040;2024-01-16T06:22:43;5.70;;;2.72;;
49296;SDS011;35163;48.878;18.040;2024-01-16T06:25:10;7.18;;;2.55;;
49296;SDS011;35163;48.878;18.040;2024-01-16T06:27:37;7.47;;;2.28;;
49296;SDS011;35163;48.878;18.040;2024-01-16T06:30:03;5.88;;;2.65;;
49296;SDS011;35163;48.878;18.040;2024-01-16T06:32:31;4.75;;;2.22;;
49296;SDS011;35163;48.878;18.040;2024-01-16T06:34:57;6.78;;;2.50;;
49296;SDS011;35163;48.878;18.040;2024-01-16T06:37:24;4.72;;;2.22;;
49296;SDS011;35163;48.878;18.040;2024-01-16T06:39:51;6.75;;;2.17;;
49296;SDS011;35163;48.878;18.040;2024-01-16T06:42:17;7.28;;;2.38;;
49296;SDS011;35163;48.878;18.040;2024-01-16T06:44:44;4.10;;;2.25;;
49296;SDS011;35163;48.878;18.040;2024-01-16T06:47:11;8.35;;;2.33;;
49296;SDS011;35163;48.878;18.040;2024-01-16T06:49:38;3.47;;;2.05;;
49296;SDS011;35163;48.878;18.040;2024-01-16T06:52:04;7.35;;;2.63;;
49296;SDS011;35163;48.878;18.040;2024-01-16T06:54:31;6.68;;;2.50;;
49296;SDS011;35163;48.878;18.040;2024-01-16T06:56:58;15.07;;;3.78;;
49296;SDS011;35163;48.878;18.040;2024-01-16T06:59:25;7.82;;;2.67;;
49296;SDS011;35163;48.878;18.040;2024-01-16T07:01:51;4.45;;;2.05;;
49296;SDS011;35163;48.878;18.040;2024-01-16T07:04:18;4.40;;;2.10;;
49296;SDS011;35163;48.878;18.040;2024-01-16T07:06:45;6.35;;;2.10;;
49296;SDS011;35163;48.878;18.040;2024-01-16T07:09:12;5.70;;;2.40;;
49296;SDS011;35163;48.878;18.040;2024-01-16T07:11:39;7.22;;;2.80;;
49296;SDS011;35163;48.878;18.040;2024-01-16T07:14:09;5.22;;;2.45;;
49296;SDS011;35163;48.878;18.040;2024-01-16T07:16:37;6.45;;;2.28;;
49296;SDS011;35163;48.878;18.040;2024-01-16T07:19:04;6.03;;;2.30;;
49296;SDS011;35163;48.878;18.040;2024-01-16T07:21:31;5.47;;;2.13;;
49296;SDS011;35163;48.878;18.040;2024-01-16T07:23:58;5.22;;;2.25;;
49296;SDS011;35163;48.878;18.040;2024-01-16T07:26:25;3.92;;;2.25;;
49296;SDS011;35163;48.878;18.040;2024-01-16T07:28:51;6.47;;;2.33;;
49296;SDS011;35163;48.878;18.040;2024-01-16T07:31:18;6.32;;;2.65;;
49296;SDS011;35163;48.878;18.040;2024-01-16T07:33:45;4.75;;;2.22;;
49296;SDS011;35163;48.878;18.040;2024-01-16T07:36:12;4.28;;;2.53;;
49296;SDS011;35163;48.878;18.040;2024-01-16T07:38:40;5.07;;;2.42;;
49296;SDS011;35163;48.878;18.040;2024-01-16T07:41:07;9.13;;;3.47;;
49296;SDS011;35163;48.878;18.040;2024-01-16T07:43:34;7.32;;;3.17;;
49296;SDS011;35163;48.878;18.040;2024-01-16T07:46:01;10.05;;;3.30;;
49296;SDS011;35163;48.878;18.040;2024-01-16T07:48:29;8.07;;;3.00;;
49296;SDS011;35163;48.878;18.040;2024-01-16T07:50:56;7.05;;;2.50;;
49296;SDS011;35163;48.878;18.040;2024-01-16T07:53:23;6.75;;;2.97;;
49296;SDS011;35163;48.878;18.040;2024-01-16T07:55:49;6.22;;;2.60;;
49296;SDS011;35163;48.878;18.040;2024-01-16T07:58:16;8.05;;;2.83;;
49296;SDS011;35163;48.878;18.040;2024-01-16T08:00:43;7.18;;;2.50;;
49296;SDS011;35163;48.878;18.040;2024-01-16T08:03:09;5.88;;;2.33;;
49296;SDS011;35163;48.878;18.040;2024-01-16T08:05:41;6.60;;;2.60;;
49296;SDS011;35163;48.878;18.040;2024-01-16T08:08:08;5.90;;;2.38;;
49296;SDS011;35163;48.878;18.040;2024-01-16T08:10:40;6.20;;;2.80;;
49296;SDS011;35163;48.878;18.040;2024-01-16T08:13:08;6.43;;;2.47;;
49296;SDS011;35163;48.878;18.040;2024-01-16T08:15:35;5.78;;;2.60;;
49296;SDS011;35163;48.878;18.040;2024-01-16T08:18:03;7.72;;;2.70;;
49296;SDS011;35163;48.878;18.040;2024-01-16T08:20:30;9.02;;;2.90;;
49296;SDS011;35163;48.878;18.040;2024-01-16T08:22:57;5.55;;;2.45;;
49296;SDS011;35163;48.878;18.040;2024-01-16T08:25:24;6.43;;;2.60;;
49296;SDS011;35163;48.878;18.040;2024-01-16T08:27:51;4.80;;;2.20;;
49296;SDS011;35163;48.878;18.040;2024-01-16T08:30:18;4.18;;;2.10;;
49296;SDS011;35163;48.878;18.040;2024-01-16T08:32:44;4.75;;;2.47;;
49296;SDS011;35163;48.878;18.040;2024-01-16T08:35:11;5.57;;;2.20;;
49296;SDS011;35163;48.878;18.040;2024-01-16T08:37:38;4.90;;;2.10;;
49296;SDS011;35163;48.878;18.040;2024-01-16T08:40:05;8.88;;;2.65;;
49296;SDS011;35163;48.878;18.040;2024-01-16T08:42:33;6.32;;;2.63;;
49296;SDS011;35163;48.878;18.040;2024-01-16T08:44:59;6.35;;;2.60;;
49296;SDS011;35163;48.878;18.040;2024-01-16T08:47:26;5.93;;;2.08;;
49296;SDS011;35163;48.878;18.040;2024-01-16T08:49:53;5.03;;;2.45;;
49296;SDS011;35163;48.878;18.040;2024-01-16T08:52:19;6.55;;;2.33;;
49296;SDS011;35163;48.878;18.040;2024-01-16T08:54:47;7.50;;;2.33;;
49296;SDS011;35163;48.878;18.040;2024-01-16T08:57:14;5.18;;;2.40;;
49296;SDS011;35163;48.878;18.040;2024-01-16T08:59:43;5.00;;;2.00;;
49296;SDS011;35163;48.878;18.040;2024-01-16T09:02:10;5.18;;;2.28;;
49296;SDS011;35163;48.878;18.040;2024-01-16T09:04:37;12.18;;;3.38;;
49296;SDS011;35163;48.878;18.040;2024-01-16T09:07:04;4.85;;;2.20;;
49296;SDS011;35163;48.878;18.040;2024-01-16T09:09:32;9.13;;;3.90;;
49296;SDS011;35163;48.878;18.040;2024-01-16T09:11:58;6.30;;;2.30;;
49296;SDS011;35163;48.878;18.040;2024-01-16T09:14:25;13.57;;;3.10;;
49296;SDS011;35163;48.878;18.040;2024-01-16T09:16:53;6.45;;;3.10;;
49296;SDS011;35163;48.878;18.040;2024-01-16T09:19:20;6.82;;;2.67;;
49296;SDS011;35163;48.878;18.040;2024-01-16T09:21:47;6.25;;;2.75;;
49296;SDS011;35163;48.878;18.040;2024-01-16T09:24:15;7.40;;;2.97;;
49296;SDS011;35163;48.878;18.040;2024-01-16T09:26:41;8.32;;;2.40;;
49296;SDS011;35163;48.878;18.040;2024-01-16T09:29:09;5.28;;;2.72;;
49296;SDS011;35163;48.878;18.040;2024-01-16T09:31:36;6.68;;;2.55;;
49296;SDS011;35163;48.878;18.040;2024-01-16T09:34:03;6.03;;;2.50;;
49296;SDS011;35163;48.878;18.040;2024-01-16T09:36:35;5.60;;;2.00;;
49296;SDS011;35163;48.878;18.040;2024-01-16T09:39:07;6.40;;;2.25;;
49296;SDS011;35163;48.878;18.040;2024-01-16T09:41:45;4.93;;;2.30;;
49296;SDS011;35163;48.878;18.040;2024-01-16T09:44:12;7.32;;;2.55;;
49296;SDS011;35163;48.878;18.040;2024-01-16T09:46:39;4.63;;;2.08;;
49296;SDS011;35163;48.878;18.040;2024-01-16T09:49:12;4.60;;;2.38;;
49296;SDS011;35163;48.878;18.040;2024-01-16T09:51:42;5.55;;;2.13;;
49296;SDS011;35163;48.878;18.040;2024-01-16T09:54:09;8.00;;;2.80;;
49296;SDS011;35163;48.878;18.040;2024-01-16T09:56:43;5.85;;;2.00;;
49296;SDS011;35163;48.878;18.040;2024-01-16T09:59:12;4.70;;;2.15;;
49296;SDS011;35163;48.878;18.040;2024-01-16T10:01:43;7.50;;;2.10;;
49296;SDS011;35163;48.878;18.040;2024-01-16T10:04:11;6.60;;;2.22;;
49296;SDS011;35163;48.878;18.040;2024-01-16T10:06:39;5.82;;;2.28;;
49296;SDS011;35163;48.878;18.040;2024-01-16T10:09:08;8.63;;;2.65;;
49296;SDS011;35163;48.878;18.040;2024-01-16T10:11:38;6.38;;;2.10;;
49296;SDS011;35163;48.878;18.040;2024-01-16T10:14:06;7.78;;;2.55;;
49296;SDS011;35163;48.878;18.040;2024-01-16T10:19:26;6.38;;;2.33;;
49296;SDS011;35163;48.878;18.040;2024-01-16T10:22:11;8.18;;;2.25;;
49296;SDS011;35163;48.878;18.040;2024-01-16T10:24:38;7.95;;;2.10;;
49296;SDS011;35163;48.878;18.040;2024-01-16T10:27:04;7.30;;;2.13;;
49296;SDS011;35163;48.878;18.040;2024-01-16T10:29:32;3.08;;;1.60;;
49296;SDS011;35163;48.878;18.040;2024-01-16T10:32:17;5.22;;;2.00;;
49296;SDS011;35163;48.878;18.040;2024-01-16T10:35:04;4.03;;;1.92;;
49296;SDS011;35163;48.878;18.040;2024-01-16T10:37:45;4.28;;;2.00;;
49296;SDS011;35163;48.878;18.040;2024-01-16T10:40:22;4.43;;;2.42;;
49296;SDS011;35163;48.878;18.040;2024-01-16T10:42:59;4.85;;;2.22;;
49296;SDS011;35163;48.878;18.040;2024-01-16T10:45:26;4.07;;;2.10;;
49296;SDS011;35163;48.878;18.040;2024-01-16T10:48:03;7.63;;;2.42;;
49296;SDS011;35163;48.878;18.040;2024-01-16T10:50:31;4.65;;;2.45;;
49296;SDS011;35163;48.878;18.040;2024-01-16T10:52:59;5.47;;;2.35;;
49296;SDS011;35163;48.878;18.040;2024-01-16T10:55:29;6.03;;;2.97;;
49296;SDS011;35163;48.878;18.040;2024-01-16T10:57:58;4.25;;;2.15;;
49296;SDS011;35163;48.878;18.040;2024-01-16T11:00:28;6.43;;;2.33;;
49296;SDS011;35163;48.878;18.040;2024-01-16T11:03:58;6.35;;;2.33;;
49296;SDS011;35163;48.878;18.040;2024-01-16T11:06:11;4.70;;;2.10;;
49296;SDS011;35163;48.878;18.040;2024-01-16T11:08:41;5.80;;;2.58;;
49296;SDS011;35163;48.878;18.040;2024-01-16T11:11:09;6.68;;;2.70;;
49296;SDS011;35163;48.878;18.040;2024-01-16T11:13:36;4.10;;;1.92;;
49296;SDS011;35163;48.878;18.040;2024-01-16T11:16:03;11.32;;;3.20;;
49296;SDS011;35163;48.878;18.040;2024-01-16T11:18:31;5.10;;;2.42;;
49296;SDS011;35163;48.878;18.040;2024-01-16T11:20:59;5.25;;;2.38;;
49296;SDS011;35163;48.878;18.040;2024-01-16T11:23:34;3.10;;;1.92;;
49296;SDS011;35163;48.878;18.040;2024-01-16T11:28:55;3.92;;;2.05;;
49296;SDS011;35163;48.878;18.040;2024-01-16T11:31:32;5.32;;;2.20;;
49296;SDS011;35163;48.878;18.040;2024-01-16T11:34:01;3.17;;;1.90;;
49296;SDS011;35163;48.878;18.040;2024-01-16T11:39:22;6.13;;;2.38;;
49296;SDS011;35163;48.878;18.040;2024-01-16T11:41:52;5.97;;;2.38;;
49296;SDS011;35163;48.878;18.040;2024-01-16T11:44:35;7.97;;;2.63;;
49296;SDS011;35163;48.878;18.040;2024-01-16T11:47:03;5.13;;;2.00;;
49296;SDS011;35163;48.878;18.040;2024-01-16T11:49:30;5.75;;;2.15;;
49296;SDS011;35163;48.878;18.040;2024-01-16T11:51:58;5.18;;;2.25;;
49296;SDS011;35163;48.878;18.040;2024-01-16T11:54:25;5.10;;;2.20;;
49296;SDS011;35163;48.878;18.040;2024-01-16T12:05:20;4.47;;;2.10;;
49296;SDS011;35163;48.878;18.040;2024-01-16T12:07:50;8.68;;;2.45;;
49296;SDS011;35163;48.878;18.040;2024-01-16T12:10:20;6.40;;;2.30;;
49296;SDS011;35163;48.878;18.040;2024-01-16T12:12:51;5.85;;;2.10;;
49296;SDS011;35163;48.878;18.040;2024-01-16T12:15:26;6.70;;;2.20;;
49296;SDS011;35163;48.878;18.040;2024-01-16T12:17:56;4.65;;;1.90;;
49296;SDS011;35163;48.878;18.040;2024-01-16T12:20:29;5.97;;;2.22;;
49296;SDS011;35163;48.878;18.040;2024-01-16T12:23:03;3.80;;;2.20;;
49296;SDS011;35163;48.878;18.040;2024-01-16T12:28:22;5.38;;;2.25;;
49296;SDS011;35163;48.878;18.040;2024-01-16T12:30:58;3.60;;;2.13;;
49296;SDS011;35163;48.878;18.040;2024-01-16T12:33:26;8.00;;;1.95;;
49296;SDS011;35163;48.878;18.040;2024-01-16T12:36:00;25.83;;;9.77;;
49296;SDS011;35163;48.878;18.040;2024-01-16T12:38:29;10.60;;;3.95;;
49296;SDS011;35163;48.878;18.040;2024-01-16T12:40:56;6.65;;;2.15;;
49296;SDS011;35163;48.878;18.040;2024-01-16T12:43:29;3.67;;;1.92;;
49296;SDS011;35163;48.878;18.040;2024-01-16T12:45:56;4.82;;;2.17;;
49296;SDS011;35163;48.878;18.040;2024-01-16T12:48:24;6.70;;;2.47;;
49296;SDS011;35163;48.878;18.040;2024-01-16T12:51:01;6.13;;;2.20;;
49296;SDS011;35163;48.878;18.040;2024-01-16T12:53:31;4.50;;;2.22;;
49296;SDS011;35163;48.878;18.040;2024-01-16T12:55:58;6.63;;;2.30;;
49296;SDS011;35163;48.878;18.040;2024-01-16T12:58:31;6.07;;;2.20;;
49296;SDS011;35163;48.878;18.040;2024-01-16T13:01:44;7.70;;;2.88;;
49296;SDS011;35163;48.878;18.040;2024-01-16T13:04:05;5.00;;;2.08;;
49296;SDS011;35163;48.878;18.040;2024-01-16T13:06:32;3.60;;;2.20;;
49296;SDS011;35163;48.878;18.040;2024-01-16T13:09:09;8.93;;;2.25;;
49296;SDS011;35163;48.878;18.040;2024-01-16T13:11:46;6.95;;;2.47;;
49296;SDS011;35163;48.878;18.040;2024-01-16T13:14:22;4.25;;;2.10;;
49296;SDS011;35163;48.878;18.040;2024-01-16T13:16:50;3.75;;;1.98;;
49296;SDS011;35163;48.878;18.040;2024-01-16T13:19:22;5.60;;;2.22;;
49296;SDS011;35163;48.878;18.040;2024-01-16T13:21:50;6.25;;;1.88;;
49296;SDS011;35163;48.878;18.040;2024-01-16T13:24:17;5.40;;;1.92;;
49296;SDS011;35163;48.878;18.040;2024-01-16T13:26:48;4.60;;;1.95;;
49296;SDS011;35163;48.878;18.040;2024-01-16T13:29:15;4.68;;;1.80;;
49296;SDS011;35163;48.878;18.040;2024-01-16T13:31:42;6.85;;;2.15;;
49296;SDS011;35163;48.878;18.040;2024-01-16T13:34:10;6.38;;;1.90;;
49296;SDS011;35163;48.878;18.040;2024-01-16T13:36:37;7.38;;;2.50;;
49296;SDS011;35163;48.878;18.040;2024-01-16T13:39:24;4.95;;;1.85;;
49296;SDS011;35163;48.878;18.040;2024-01-16T13:41:51;3.85;;;1.60;;
49296;SDS011;35163;48.878;18.040;2024-01-16T13:44:19;3.20;;;1.63;;
49296;SDS011;35163;48.878;18.040;2024-01-16T13:46:46;3.38;;;1.70;;
49296;SDS011;35163;48.878;18.040;2024-01-16T13:49:30;4.30;;;1.80;;
49296;SDS011;35163;48.878;18.040;2024-01-16T13:52:00;5.88;;;1.75;;
49296;SDS011;35163;48.878;18.040;2024-01-16T13:54:26;5.03;;;1.85;;
49296;SDS011;35163;48.878;18.040;2024-01-16T13:56:53;4.32;;;2.00;;
49296;SDS011;35163;48.878;18.040;2024-01-16T13:59:32;7.40;;;1.98;;
49296;SDS011;35163;48.878;18.040;2024-01-16T14:01:59;5.88;;;2.10;;
49296;SDS011;35163;48.878;18.040;2024-01-16T14:04:28;3.72;;;1.80;;
49296;SDS011;35163;48.878;18.040;2024-01-16T14:06:54;4.72;;;2.00;;
49296;SDS011;35163;48.878;18.040;2024-01-16T14:09:38;6.35;;;2.20;;
49296;SDS011;35163;48.878;18.040;2024-01-16T14:12:08;5.57;;;2.33;;
49296;SDS011;35163;48.878;18.040;2024-01-16T14:14:35;4.72;;;2.00;;
49296;SDS011;35163;48.878;18.040;2024-01-16T14:17:05;4.32;;;2.20;;
49296;SDS011;35163;48.878;18.040;2024-01-16T14:19:33;7.07;;;2.33;;
49296;SDS011;35163;48.878;18.040;2024-01-16T14:22:01;4.05;;;1.73;;
49296;SDS011;35163;48.878;18.040;2024-01-16T14:24:28;5.68;;;2.28;;
49296;SDS011;35163;48.878;18.040;2024-01-16T14:26:54;4.18;;;2.10;;
49296;SDS011;35163;48.878;18.040;2024-01-16T14:29:24;6.10;;;2.13;;
49296;SDS011;35163;48.878;18.040;2024-01-16T14:31:53;5.45;;;2.15;;
49296;SDS011;35163;48.878;18.040;2024-01-16T14:34:23;13.20;;;2.47;;
49296;SDS011;35163;48.878;18.040;2024-01-16T14:36:50;5.80;;;1.98;;
49296;SDS011;35163;48.878;18.040;2024-01-16T14:39:16;5.50;;;2.25;;
49296;SDS011;35163;48.878;18.040;2024-01-16T14:41:48;5.35;;;2.28;;
49296;SDS011;35163;48.878;18.040;2024-01-16T14:44:15;8.18;;;2.40;;
49296;SDS011;35163;48.878;18.040;2024-01-16T14:46:42;3.88;;;1.90;;
49296;SDS011;35163;48.878;18.040;2024-01-16T14:49:14;4.55;;;2.00;;
49296;SDS011;35163;48.878;18.040;2024-01-16T14:51:41;6.07;;;2.20;;
49296;SDS011;35163;48.878;18.040;2024-01-16T14:54:08;8.65;;;2.83;;
49296;SDS011;35163;48.878;18.040;2024-01-16T14:56:35;9.93;;;1.92;;
49296;SDS011;35163;48.878;18.040;2024-01-16T14:59:02;7.20;;;2.60;;
49296;SDS011;35163;48.878;18.040;2024-01-16T15:01:30;6.35;;;2.53;;